BAW1416 LGAV-HEAX
Flight info
| Callsign | BAW1416 |
|---|---|
| Flight time | 1h 17m |
| Altitude | 37000 |
| Route | KEA1H KEA UL607 PAXIS L607 NABSI DCT |
| Aircraft | A320/M-SDE3FGHIJ1KRWXY/S |
Departure
| Time | 2026-05-03 20:32 |
|---|---|
| Airport | Athens Eleftherios Venizelos International Airport (LGAV) |
Arrival
| Time | 2026-05-03 21:49 |
|---|---|
| Airport | Alexandria International Airport (HEAX) |
| Time | Latitude | Longitude | Altitude | Speed | Heading |
|---|---|---|---|---|---|
| 2026-05-03 20:15 | 37.93456 | 23.94710 | 301 ft | 0 kts | 306° |
| 2026-05-03 20:20 | 37.93445 | 23.94729 | 301 ft | 4 kts | 303° |
| 2026-05-03 20:21 | 37.93432 | 23.94758 | 301 ft | 4 kts | 290° |
| 2026-05-03 20:21 | 37.93428 | 23.94789 | 301 ft | 4 kts | 248° |
| 2026-05-03 20:21 | 37.93433 | 23.94801 | 301 ft | 0 kts | 217° |
| 2026-05-03 20:23 | 37.93431 | 23.94799 | 301 ft | 1 kts | 216° |
| 2026-05-03 20:24 | 37.93415 | 23.94786 | 302 ft | 4 kts | 211° |
| 2026-05-03 20:24 | 37.93385 | 23.94757 | 302 ft | 7 kts | 218° |
| 2026-05-03 20:24 | 37.93339 | 23.94712 | 301 ft | 10 kts | 218° |
| 2026-05-03 20:24 | 37.93276 | 23.94650 | 301 ft | 13 kts | 218° |
| 2026-05-03 20:25 | 37.93216 | 23.94592 | 301 ft | 12 kts | 217° |
| 2026-05-03 20:25 | 37.93165 | 23.94538 | 303 ft | 8 kts | 232° |
| 2026-05-03 20:25 | 37.93178 | 23.94460 | 301 ft | 11 kts | 310° |
| 2026-05-03 20:25 | 37.93232 | 23.94376 | 301 ft | 14 kts | 306° |
| 2026-05-03 20:26 | 37.93284 | 23.94265 | 303 ft | 14 kts | 274° |
| 2026-05-03 20:26 | 37.93215 | 23.94167 | 302 ft | 17 kts | 216° |
| 2026-05-03 20:26 | 37.93116 | 23.94075 | 304 ft | 14 kts | 216° |
| 2026-05-03 20:26 | 37.93117 | 23.93963 | 302 ft | 16 kts | 308° |
| 2026-05-03 20:27 | 37.93191 | 23.93843 | 301 ft | 19 kts | 307° |
| 2026-05-03 20:27 | 37.93275 | 23.93703 | 303 ft | 21 kts | 308° |
| 2026-05-03 20:27 | 37.93358 | 23.93564 | 300 ft | 18 kts | 305° |
| 2026-05-03 20:27 | 37.93354 | 23.93455 | 300 ft | 15 kts | 215° |
| 2026-05-03 20:28 | 37.93260 | 23.93368 | 301 ft | 18 kts | 218° |
| 2026-05-03 20:28 | 37.93151 | 23.93260 | 302 ft | 21 kts | 217° |
| 2026-05-03 20:28 | 37.93024 | 23.93141 | 301 ft | 24 kts | 216° |
| 2026-05-03 20:28 | 37.92883 | 23.93008 | 300 ft | 26 kts | 218° |
| 2026-05-03 20:29 | 37.92732 | 23.92862 | 302 ft | 29 kts | 216° |
| 2026-05-03 20:29 | 37.92566 | 23.92706 | 301 ft | 31 kts | 217° |
| 2026-05-03 20:29 | 37.92451 | 23.92594 | 302 ft | 32 kts | 217° |
| 2026-05-03 20:29 | 37.92268 | 23.92424 | 303 ft | 34 kts | 217° |
| 2026-05-03 20:30 | 37.92089 | 23.92250 | 302 ft | 17 kts | 218° |
| 2026-05-03 20:30 | 37.92012 | 23.92173 | 302 ft | 16 kts | 223° |
| 2026-05-03 20:30 | 37.91994 | 23.92033 | 303 ft | 18 kts | 299° |
| 2026-05-03 20:30 | 37.92100 | 23.91951 | 306 ft | 19 kts | 352° |
| 2026-05-03 20:31 | 37.92266 | 23.92005 | 306 ft | 38 kts | 37° |
| 2026-05-03 20:31 | 37.92681 | 23.92397 | 301 ft | 108 kts | 37° |
| 2026-05-03 20:31 | 37.93434 | 23.93113 | 297 ft | 160 kts | 37° |
| 2026-05-03 20:31 | 37.94349 | 23.93992 | 791 ft | 165 kts | 35° |
| 2026-05-03 20:32 | 37.95265 | 23.94851 | 1556 ft | 162 kts | 31° |
| 2026-05-03 20:32 | 37.96221 | 23.95691 | 2056 ft | 176 kts | 29° |
| 2026-05-03 20:32 | 37.97297 | 23.96588 | 2391 ft | 198 kts | 30° |
| 2026-05-03 20:32 | 37.98541 | 23.97588 | 2771 ft | 225 kts | 30° |
| 2026-05-03 20:33 | 37.99922 | 23.98693 | 3461 ft | 240 kts | 30° |
| 2026-05-03 20:33 | 38.01347 | 23.99820 | 4509 ft | 241 kts | 29° |
| 2026-05-03 20:33 | 38.02649 | 24.01146 | 5583 ft | 245 kts | 47° |
| 2026-05-03 20:33 | 38.03403 | 24.03130 | 6540 ft | 260 kts | 74° |
| 2026-05-03 20:34 | 38.03284 | 24.05469 | 7385 ft | 280 kts | 105° |
| 2026-05-03 20:34 | 38.02150 | 24.07522 | 8229 ft | 298 kts | 137° |
| 2026-05-03 20:34 | 38.00367 | 24.08951 | 9058 ft | 307 kts | 148° |
| 2026-05-03 20:34 | 37.98459 | 24.10235 | 9913 ft | 313 kts | 150° |
| 2026-05-03 20:35 | 37.96465 | 24.11503 | 10382 ft | 333 kts | 151° |
| 2026-05-03 20:35 | 37.94319 | 24.12857 | 10634 ft | 355 kts | 152° |
| 2026-05-03 20:35 | 37.92089 | 24.14273 | 11274 ft | 361 kts | 151° |
| 2026-05-03 20:35 | 37.89836 | 24.15724 | 11998 ft | 366 kts | 152° |
| 2026-05-03 20:36 | 37.87560 | 24.17213 | 12788 ft | 369 kts | 152° |
| 2026-05-03 20:36 | 37.85272 | 24.18724 | 13467 ft | 375 kts | 151° |
| 2026-05-03 20:36 | 37.82952 | 24.20265 | 14161 ft | 379 kts | 151° |
| 2026-05-03 20:36 | 37.80604 | 24.21826 | 14776 ft | 383 kts | 151° |
| 2026-05-03 20:37 | 37.78238 | 24.23399 | 15486 ft | 385 kts | 151° |
| 2026-05-03 20:37 | 37.75855 | 24.24981 | 16104 ft | 389 kts | 151° |
| 2026-05-03 20:37 | 37.73443 | 24.26576 | 16717 ft | 393 kts | 151° |
| 2026-05-03 20:37 | 37.71013 | 24.28174 | 17342 ft | 397 kts | 151° |
| 2026-05-03 20:38 | 37.68559 | 24.29782 | 17978 ft | 401 kts | 150° |
| 2026-05-03 20:38 | 37.66072 | 24.31412 | 18583 ft | 405 kts | 150° |
| 2026-05-03 20:38 | 37.63562 | 24.33058 | 19199 ft | 408 kts | 150° |
| 2026-05-03 20:38 | 37.61037 | 24.34710 | 19848 ft | 410 kts | 150° |
| 2026-05-03 20:39 | 37.58494 | 24.36377 | 20515 ft | 412 kts | 150° |
| 2026-05-03 20:39 | 37.55941 | 24.38048 | 21157 ft | 415 kts | 150° |
| 2026-05-03 20:39 | 37.53373 | 24.39730 | 21716 ft | 419 kts | 150° |
| 2026-05-03 20:39 | 37.50777 | 24.41435 | 22271 ft | 422 kts | 150° |
| 2026-05-03 20:40 | 37.48164 | 24.43150 | 22832 ft | 426 kts | 150° |
| 2026-05-03 20:40 | 37.45527 | 24.44880 | 23311 ft | 430 kts | 150° |
| 2026-05-03 20:40 | 37.42880 | 24.46613 | 23991 ft | 427 kts | 150° |
| 2026-05-03 20:40 | 37.40221 | 24.48348 | 24343 ft | 434 kts | 151° |
| 2026-05-03 20:41 | 37.37577 | 24.50068 | 24844 ft | 434 kts | 151° |
| 2026-05-03 20:41 | 37.34884 | 24.51818 | 25243 ft | 438 kts | 151° |
| 2026-05-03 20:41 | 37.32164 | 24.53586 | 25592 ft | 442 kts | 152° |
| 2026-05-03 20:41 | 37.29420 | 24.55369 | 25995 ft | 445 kts | 152° |
| 2026-05-03 20:42 | 37.26655 | 24.57163 | 26340 ft | 450 kts | 152° |
| 2026-05-03 20:42 | 37.23864 | 24.58975 | 26702 ft | 454 kts | 152° |
| 2026-05-03 20:42 | 37.21051 | 24.60802 | 27073 ft | 457 kts | 152° |
| 2026-05-03 20:42 | 37.18216 | 24.62641 | 27425 ft | 461 kts | 152° |
| 2026-05-03 20:43 | 37.15359 | 24.64491 | 27769 ft | 464 kts | 152° |
| 2026-05-03 20:43 | 37.12478 | 24.66358 | 28092 ft | 469 kts | 152° |
| 2026-05-03 20:43 | 37.09560 | 24.68243 | 28404 ft | 473 kts | 152° |
| 2026-05-03 20:43 | 37.06618 | 24.70140 | 28736 ft | 477 kts | 152° |
| 2026-05-03 20:44 | 37.03659 | 24.72051 | 29064 ft | 481 kts | 152° |
| 2026-05-03 20:44 | 37.00670 | 24.73982 | 29390 ft | 485 kts | 152° |
| 2026-05-03 20:44 | 36.97659 | 24.75922 | 29711 ft | 489 kts | 153° |
| 2026-05-03 20:44 | 36.94619 | 24.77872 | 30027 ft | 493 kts | 153° |
| 2026-05-03 20:45 | 36.91564 | 24.79851 | 30305 ft | 496 kts | 152° |
| 2026-05-03 20:45 | 36.88547 | 24.81973 | 30583 ft | 499 kts | 149° |
| 2026-05-03 20:45 | 36.85583 | 24.84234 | 30784 ft | 504 kts | 148° |
| 2026-05-03 20:45 | 36.82617 | 24.86611 | 31017 ft | 507 kts | 147° |
| 2026-05-03 20:46 | 36.79655 | 24.89025 | 31392 ft | 507 kts | 147° |
| 2026-05-03 20:46 | 36.76700 | 24.91414 | 31788 ft | 507 kts | 147° |
| 2026-05-03 20:46 | 36.73733 | 24.93767 | 32191 ft | 506 kts | 148° |
| 2026-05-03 20:46 | 36.70740 | 24.96090 | 32594 ft | 506 kts | 149° |
| 2026-05-03 20:47 | 36.67733 | 24.98386 | 33008 ft | 506 kts | 149° |
| 2026-05-03 20:47 | 36.64733 | 25.00656 | 33430 ft | 505 kts | 149° |
| 2026-05-03 20:47 | 36.61737 | 25.02918 | 33920 ft | 502 kts | 149° |
| 2026-05-03 20:47 | 36.58755 | 25.05175 | 34305 ft | 502 kts | 150° |
| 2026-05-03 20:48 | 36.55770 | 25.07446 | 34645 ft | 502 kts | 149° |
| 2026-05-03 20:48 | 36.52796 | 25.09721 | 34997 ft | 501 kts | 149° |
| 2026-05-03 20:48 | 36.49833 | 25.11994 | 35353 ft | 500 kts | 149° |
| 2026-05-03 20:48 | 36.46875 | 25.14264 | 35684 ft | 499 kts | 149° |
| 2026-05-03 20:49 | 36.43917 | 25.16528 | 36035 ft | 498 kts | 150° |
| 2026-05-03 20:49 | 36.40969 | 25.18781 | 36374 ft | 497 kts | 150° |
| 2026-05-03 20:49 | 36.38026 | 25.21026 | 36707 ft | 496 kts | 150° |
| 2026-05-03 20:49 | 36.35083 | 25.23262 | 36988 ft | 496 kts | 150° |
| 2026-05-03 20:50 | 36.32135 | 25.25496 | 37055 ft | 497 kts | 150° |
| 2026-05-03 20:50 | 36.26210 | 25.29975 | 37059 ft | 499 kts | 150° |
| 2026-05-03 20:51 | 36.20338 | 25.34429 | 37063 ft | 498 kts | 150° |
| 2026-05-03 20:51 | 36.14444 | 25.38901 | 37060 ft | 496 kts | 150° |
| 2026-05-03 20:52 | 36.08556 | 25.43344 | 37062 ft | 496 kts | 150° |
| 2026-05-03 20:52 | 36.02656 | 25.47781 | 37038 ft | 496 kts | 151° |
| 2026-05-03 20:53 | 35.96755 | 25.52216 | 37038 ft | 497 kts | 151° |
| 2026-05-03 20:53 | 35.90841 | 25.56651 | 37047 ft | 498 kts | 151° |
| 2026-05-03 20:54 | 35.84912 | 25.61093 | 37055 ft | 498 kts | 151° |
| 2026-05-03 20:54 | 35.76027 | 25.67748 | 37046 ft | 499 kts | 152° |
| 2026-05-03 20:55 | 35.70093 | 25.72184 | 37051 ft | 499 kts | 152° |
| 2026-05-03 20:55 | 35.64159 | 25.76602 | 37050 ft | 499 kts | 152° |
| 2026-05-03 20:56 | 35.58218 | 25.81021 | 37051 ft | 499 kts | 152° |
| 2026-05-03 20:56 | 35.52273 | 25.85438 | 37057 ft | 499 kts | 152° |
| 2026-05-03 20:57 | 35.46321 | 25.89839 | 37058 ft | 499 kts | 152° |
| 2026-05-03 20:57 | 35.40374 | 25.94239 | 37057 ft | 499 kts | 152° |
| 2026-05-03 20:58 | 35.34431 | 25.98635 | 37071 ft | 499 kts | 152° |
| 2026-05-03 20:58 | 35.28490 | 26.03022 | 37059 ft | 498 kts | 152° |
| 2026-05-03 20:59 | 35.22554 | 26.07384 | 37025 ft | 498 kts | 154° |
| 2026-05-03 20:59 | 35.16610 | 26.11741 | 37032 ft | 498 kts | 154° |
| 2026-05-03 21:00 | 35.12646 | 26.14646 | 37028 ft | 499 kts | 154° |
| 2026-05-03 21:00 | 35.04918 | 26.20893 | 37035 ft | 505 kts | 143° |
| 2026-05-03 21:01 | 34.99584 | 26.26480 | 37038 ft | 505 kts | 143° |
| 2026-05-03 21:01 | 34.94247 | 26.32043 | 37020 ft | 505 kts | 143° |
| 2026-05-03 21:02 | 34.88890 | 26.37592 | 37016 ft | 506 kts | 144° |
| 2026-05-03 21:02 | 34.83523 | 26.43142 | 37025 ft | 507 kts | 143° |
| 2026-05-03 21:03 | 34.78145 | 26.48711 | 37032 ft | 508 kts | 143° |
| 2026-05-03 21:03 | 34.72769 | 26.54275 | 37037 ft | 508 kts | 143° |
| 2026-05-03 21:04 | 34.67372 | 26.59837 | 37042 ft | 508 kts | 144° |
| 2026-05-03 21:04 | 34.61978 | 26.65384 | 37004 ft | 508 kts | 144° |
| 2026-05-03 21:05 | 34.56575 | 26.70924 | 37015 ft | 509 kts | 144° |
| 2026-05-03 21:05 | 34.51158 | 26.76475 | 37024 ft | 510 kts | 144° |
| 2026-05-03 21:06 | 34.45744 | 26.82032 | 37032 ft | 510 kts | 144° |
| 2026-05-03 21:06 | 34.40322 | 26.87580 | 37045 ft | 510 kts | 145° |
| 2026-05-03 21:07 | 34.34889 | 26.93118 | 37008 ft | 510 kts | 145° |
| 2026-05-03 21:07 | 34.29504 | 26.98604 | 37024 ft | 510 kts | 146° |
| 2026-05-03 21:08 | 34.24050 | 27.04140 | 37041 ft | 510 kts | 146° |
| 2026-05-03 21:08 | 34.18653 | 27.09609 | 37045 ft | 509 kts | 146° |
| 2026-05-03 21:09 | 34.13226 | 27.15111 | 37040 ft | 509 kts | 146° |
| 2026-05-03 21:09 | 34.07811 | 27.20597 | 37036 ft | 509 kts | 146° |
| 2026-05-03 21:10 | 34.02389 | 27.26060 | 37024 ft | 508 kts | 147° |
| 2026-05-03 21:10 | 33.96953 | 27.31522 | 37043 ft | 508 kts | 147° |
| 2026-05-03 21:11 | 33.91287 | 27.36475 | 37049 ft | 501 kts | 153° |
| 2026-05-03 21:11 | 33.85500 | 27.41131 | 37049 ft | 501 kts | 153° |
| 2026-05-03 21:12 | 33.79707 | 27.45783 | 37051 ft | 500 kts | 153° |
| 2026-05-03 21:12 | 33.74897 | 27.49649 | 36997 ft | 500 kts | 154° |
| 2026-05-03 21:13 | 33.69120 | 27.54285 | 37031 ft | 499 kts | 154° |
| 2026-05-03 21:13 | 33.63343 | 27.58913 | 37045 ft | 499 kts | 154° |
| 2026-05-03 21:14 | 33.57579 | 27.63523 | 37047 ft | 498 kts | 154° |
| 2026-05-03 21:14 | 33.51813 | 27.68129 | 37048 ft | 498 kts | 154° |
| 2026-05-03 21:15 | 33.46038 | 27.72727 | 36979 ft | 498 kts | 155° |
| 2026-05-03 21:15 | 33.40281 | 27.77301 | 37032 ft | 497 kts | 155° |
| 2026-05-03 21:16 | 33.34519 | 27.81873 | 37046 ft | 496 kts | 155° |
| 2026-05-03 21:16 | 33.28763 | 27.86436 | 37050 ft | 496 kts | 155° |
| 2026-05-03 21:17 | 33.23006 | 27.90996 | 37052 ft | 496 kts | 155° |
| 2026-05-03 21:17 | 33.17252 | 27.95549 | 37056 ft | 496 kts | 155° |
| 2026-05-03 21:18 | 33.11498 | 28.00083 | 37041 ft | 496 kts | 155° |
| 2026-05-03 21:18 | 33.05748 | 28.04618 | 37057 ft | 495 kts | 155° |
| 2026-05-03 21:19 | 33.00004 | 28.09147 | 37052 ft | 495 kts | 156° |
| 2026-05-03 21:19 | 32.94253 | 28.13664 | 37060 ft | 495 kts | 156° |
| 2026-05-03 21:20 | 32.88504 | 28.18164 | 37062 ft | 494 kts | 156° |
| 2026-05-03 21:20 | 32.82759 | 28.22658 | 37030 ft | 494 kts | 156° |
| 2026-05-03 21:21 | 32.77016 | 28.27154 | 37048 ft | 494 kts | 156° |
| 2026-05-03 21:21 | 32.71310 | 28.31604 | 37062 ft | 494 kts | 156° |
| 2026-05-03 21:22 | 32.65515 | 28.36118 | 37069 ft | 494 kts | 156° |
| 2026-05-03 21:22 | 32.59765 | 28.40591 | 37072 ft | 494 kts | 156° |
| 2026-05-03 21:23 | 32.54073 | 28.45018 | 37074 ft | 494 kts | 156° |
| 2026-05-03 21:23 | 32.48328 | 28.49471 | 37076 ft | 493 kts | 156° |
| 2026-05-03 21:24 | 32.42594 | 28.53912 | 37077 ft | 493 kts | 156° |
| 2026-05-03 21:24 | 32.36849 | 28.58360 | 37081 ft | 493 kts | 156° |
| 2026-05-03 21:25 | 32.31122 | 28.62777 | 37082 ft | 492 kts | 156° |
| 2026-05-03 21:25 | 32.28267 | 28.64980 | 36852 ft | 492 kts | 156° |
| 2026-05-03 21:25 | 32.25357 | 28.67215 | 35702 ft | 502 kts | 157° |
| 2026-05-03 21:26 | 32.22407 | 28.69474 | 34850 ft | 504 kts | 158° |
| 2026-05-03 21:26 | 32.19462 | 28.71740 | 34001 ft | 505 kts | 158° |
| 2026-05-03 21:26 | 32.16515 | 28.74010 | 32799 ft | 510 kts | 158° |
| 2026-05-03 21:26 | 32.13556 | 28.76283 | 32041 ft | 506 kts | 158° |
| 2026-05-03 21:27 | 32.10623 | 28.78549 | 31434 ft | 500 kts | 158° |
| 2026-05-03 21:27 | 32.07726 | 28.80783 | 30784 ft | 497 kts | 158° |
| 2026-05-03 21:27 | 32.04841 | 28.83002 | 30142 ft | 494 kts | 158° |
| 2026-05-03 21:27 | 32.01970 | 28.85204 | 29431 ft | 490 kts | 158° |
| 2026-05-03 21:28 | 31.99143 | 28.87370 | 28802 ft | 485 kts | 158° |
| 2026-05-03 21:28 | 31.96324 | 28.89531 | 28172 ft | 479 kts | 158° |
| 2026-05-03 21:28 | 31.93538 | 28.91663 | 27535 ft | 475 kts | 158° |
| 2026-05-03 21:28 | 31.90783 | 28.93766 | 26927 ft | 471 kts | 158° |
| 2026-05-03 21:29 | 31.88032 | 28.95862 | 26312 ft | 468 kts | 158° |
| 2026-05-03 21:29 | 31.85311 | 28.97933 | 25716 ft | 465 kts | 157° |
| 2026-05-03 21:29 | 31.82611 | 28.99988 | 25145 ft | 461 kts | 157° |
| 2026-05-03 21:29 | 31.79923 | 29.02034 | 24582 ft | 458 kts | 157° |
| 2026-05-03 21:30 | 31.77262 | 29.04049 | 24040 ft | 455 kts | 157° |
| 2026-05-03 21:30 | 31.74619 | 29.06055 | 23476 ft | 453 kts | 156° |
| 2026-05-03 21:30 | 31.71992 | 29.08066 | 22958 ft | 448 kts | 156° |
| 2026-05-03 21:30 | 31.69405 | 29.10064 | 22465 ft | 444 kts | 156° |
| 2026-05-03 21:31 | 31.66888 | 29.12110 | 22167 ft | 442 kts | 148° |
| 2026-05-03 21:31 | 31.64790 | 29.14753 | 22058 ft | 446 kts | 134° |
| 2026-05-03 21:31 | 31.62912 | 29.17677 | 22060 ft | 448 kts | 134° |
| 2026-05-03 21:31 | 31.61038 | 29.20588 | 22060 ft | 448 kts | 134° |
| 2026-05-03 21:32 | 31.59155 | 29.23510 | 22060 ft | 448 kts | 134° |
| 2026-05-03 21:32 | 31.57277 | 29.26425 | 22049 ft | 448 kts | 134° |
| 2026-05-03 21:32 | 31.55402 | 29.29343 | 22051 ft | 448 kts | 134° |
| 2026-05-03 21:32 | 31.53530 | 29.32265 | 22055 ft | 448 kts | 134° |
| 2026-05-03 21:33 | 31.51665 | 29.35171 | 22055 ft | 447 kts | 134° |
| 2026-05-03 21:33 | 31.49787 | 29.38085 | 22050 ft | 447 kts | 134° |
| 2026-05-03 21:33 | 31.47913 | 29.40983 | 21917 ft | 447 kts | 134° |
| 2026-05-03 21:33 | 31.46013 | 29.43913 | 20994 ft | 456 kts | 134° |
| 2026-05-03 21:34 | 31.44103 | 29.46861 | 20067 ft | 452 kts | 133° |
| 2026-05-03 21:34 | 31.42225 | 29.49775 | 19123 ft | 446 kts | 133° |
| 2026-05-03 21:34 | 31.40370 | 29.52656 | 18346 ft | 443 kts | 133° |
| 2026-05-03 21:34 | 31.38539 | 29.55500 | 17603 ft | 432 kts | 133° |
| 2026-05-03 21:35 | 31.36736 | 29.58291 | 16986 ft | 428 kts | 133° |
| 2026-05-03 21:35 | 31.34940 | 29.61059 | 16384 ft | 426 kts | 133° |
| 2026-05-03 21:35 | 31.33163 | 29.63796 | 15865 ft | 421 kts | 133° |
| 2026-05-03 21:35 | 31.31406 | 29.66500 | 15321 ft | 417 kts | 133° |
| 2026-05-03 21:36 | 31.29658 | 29.69188 | 14628 ft | 417 kts | 133° |
| 2026-05-03 21:36 | 31.27919 | 29.71860 | 14206 ft | 410 kts | 133° |
| 2026-05-03 21:36 | 31.26204 | 29.74497 | 13629 ft | 407 kts | 133° |
| 2026-05-03 21:36 | 31.24501 | 29.77115 | 13064 ft | 403 kts | 133° |
| 2026-05-03 21:37 | 31.22830 | 29.79683 | 12532 ft | 398 kts | 133° |
| 2026-05-03 21:37 | 31.21166 | 29.82231 | 12004 ft | 393 kts | 132° |
| 2026-05-03 21:37 | 31.19516 | 29.84764 | 11486 ft | 389 kts | 132° |
| 2026-05-03 21:37 | 31.17893 | 29.87253 | 10977 ft | 384 kts | 132° |
| 2026-05-03 21:38 | 31.16294 | 29.89701 | 10453 ft | 381 kts | 131° |
| 2026-05-03 21:38 | 31.14730 | 29.92098 | 10231 ft | 369 kts | 131° |
| 2026-05-03 21:38 | 31.13190 | 29.94462 | 10064 ft | 356 kts | 131° |
| 2026-05-03 21:38 | 31.11686 | 29.96746 | 9531 ft | 354 kts | 134° |
| 2026-05-03 21:39 | 31.09896 | 29.98533 | 9063 ft | 340 kts | 157° |
| 2026-05-03 21:39 | 31.07733 | 29.99342 | 8616 ft | 323 kts | 180° |
| 2026-05-03 21:39 | 31.05568 | 29.99164 | 8181 ft | 304 kts | 201° |
| 2026-05-03 21:39 | 31.03623 | 29.98427 | 7785 ft | 286 kts | 205° |
| 2026-05-03 21:40 | 31.01818 | 29.97719 | 7403 ft | 273 kts | 205° |
| 2026-05-03 21:40 | 31.00067 | 29.97034 | 7046 ft | 261 kts | 205° |
| 2026-05-03 21:40 | 30.98382 | 29.96374 | 6692 ft | 251 kts | 204° |
| 2026-05-03 21:40 | 30.96758 | 29.95737 | 6352 ft | 242 kts | 204° |
| 2026-05-03 21:41 | 30.95199 | 29.95123 | 6009 ft | 232 kts | 204° |
| 2026-05-03 21:41 | 30.93712 | 29.94539 | 5695 ft | 221 kts | 204° |
| 2026-05-03 21:41 | 30.92284 | 29.93982 | 5402 ft | 215 kts | 204° |
| 2026-05-03 21:41 | 30.90866 | 29.93426 | 5108 ft | 216 kts | 204° |
| 2026-05-03 21:42 | 30.89454 | 29.92869 | 4791 ft | 216 kts | 204° |
| 2026-05-03 21:42 | 30.88028 | 29.92303 | 4450 ft | 217 kts | 204° |
| 2026-05-03 21:42 | 30.86615 | 29.91746 | 4145 ft | 217 kts | 204° |
| 2026-05-03 21:42 | 30.85186 | 29.91185 | 3845 ft | 217 kts | 203° |
| 2026-05-03 21:43 | 30.83784 | 29.90635 | 3555 ft | 216 kts | 203° |
| 2026-05-03 21:43 | 30.82370 | 29.90081 | 3261 ft | 216 kts | 203° |
| 2026-05-03 21:43 | 30.80959 | 29.89501 | 2954 ft | 214 kts | 210° |
| 2026-05-03 21:43 | 30.79762 | 29.88549 | 2672 ft | 206 kts | 230° |
| 2026-05-03 21:44 | 30.78882 | 29.87265 | 2376 ft | 203 kts | 238° |
| 2026-05-03 21:44 | 30.78118 | 29.85922 | 2098 ft | 198 kts | 250° |
| 2026-05-03 21:44 | 30.77783 | 29.84440 | 2002 ft | 182 kts | 269° |
| 2026-05-03 21:44 | 30.77875 | 29.83065 | 2006 ft | 163 kts | 285° |
| 2026-05-03 21:45 | 30.78275 | 29.81890 | 1995 ft | 153 kts | 301° |
| 2026-05-03 21:45 | 30.78917 | 29.80933 | 2003 ft | 150 kts | 314° |
| 2026-05-03 21:45 | 30.79730 | 29.80181 | 2001 ft | 150 kts | 320° |
| 2026-05-03 21:45 | 30.80561 | 29.79454 | 2003 ft | 150 kts | 320° |
| 2026-05-03 21:46 | 30.81387 | 29.78730 | 2002 ft | 150 kts | 319° |
| 2026-05-03 21:46 | 30.82211 | 29.78009 | 2002 ft | 150 kts | 319° |
| 2026-05-03 21:46 | 30.83041 | 29.77282 | 1918 ft | 146 kts | 320° |
| 2026-05-03 21:46 | 30.83801 | 29.76618 | 1792 ft | 130 kts | 319° |
| 2026-05-03 21:47 | 30.84504 | 29.76001 | 1634 ft | 125 kts | 319° |
| 2026-05-03 21:47 | 30.85189 | 29.75399 | 1471 ft | 123 kts | 319° |
| 2026-05-03 21:47 | 30.85872 | 29.74800 | 1307 ft | 123 kts | 319° |
| 2026-05-03 21:47 | 30.86549 | 29.74207 | 1146 ft | 121 kts | 319° |
| 2026-05-03 21:48 | 30.87223 | 29.73615 | 982 ft | 122 kts | 319° |
| 2026-05-03 21:48 | 30.87906 | 29.73016 | 822 ft | 126 kts | 321° |
| 2026-05-03 21:48 | 30.88605 | 29.72397 | 700 ft | 126 kts | 322° |
| 2026-05-03 21:48 | 30.89303 | 29.71784 | 512 ft | 125 kts | 321° |
| 2026-05-03 21:49 | 30.90003 | 29.71174 | 328 ft | 126 kts | 320° |
| 2026-05-03 21:49 | 30.90690 | 29.70569 | 173 ft | 126 kts | 321° |
| 2026-05-03 21:49 | 30.91282 | 29.70051 | 162 ft | 76 kts | 323° |
| 2026-05-03 21:49 | 30.91540 | 29.69825 | 162 ft | 39 kts | 322° |
| 2026-05-03 21:50 | 30.91752 | 29.69630 | 161 ft | 40 kts | 322° |
| 2026-05-03 21:50 | 30.91885 | 29.69512 | 160 ft | 14 kts | 326° |
| 2026-05-03 21:50 | 30.91928 | 29.69420 | 162 ft | 15 kts | 255° |
| 2026-05-03 21:50 | 30.91866 | 29.69313 | 152 ft | 15 kts | 231° |
| 2026-05-03 21:51 | 30.91839 | 29.69274 | 162 ft | 5 kts | 231° |
| 2026-05-03 21:51 | 30.91810 | 29.69233 | 162 ft | 8 kts | 230° |
| 2026-05-03 21:51 | 30.91775 | 29.69170 | 159 ft | 10 kts | 260° |
| 2026-05-03 21:51 | 30.91802 | 29.69116 | 164 ft | 5 kts | 290° |
| 2026-05-03 21:52 | 30.91781 | 29.69069 | 164 ft | 6 kts | 232° |
| 2026-05-03 21:52 | 30.91781 | 29.69068 | 164 ft | 0 kts | 232° |